createdAt,value
2023-04-22T00:00:58.936Z,0.95
2023-04-22T00:03:28.060Z,1.08
2023-04-22T00:05:56.046Z,0.90
2023-04-22T00:08:26.501Z,0.80
2023-04-22T00:10:53.868Z,1.10
2023-04-22T00:13:21.299Z,0.98
2023-04-22T00:15:48.453Z,0.98
2023-04-22T00:18:16.643Z,0.90
2023-04-22T00:20:45.349Z,0.88
2023-04-22T00:23:14.698Z,0.80
2023-04-22T00:25:42.019Z,0.75
2023-04-22T00:28:09.326Z,0.85
2023-04-22T00:30:39.225Z,0.70
2023-04-22T00:33:08.763Z,0.80
2023-04-22T00:35:36.129Z,0.88
2023-04-22T00:38:04.080Z,0.73
2023-04-22T00:40:34.435Z,0.80
2023-04-22T00:43:04.350Z,1.00
2023-04-22T00:45:33.208Z,0.68
2023-04-22T00:48:01.622Z,0.60
2023-04-22T00:50:34.102Z,0.80
2023-04-22T00:53:01.445Z,0.80
2023-04-22T00:55:31.755Z,0.60
2023-04-22T00:58:03.985Z,0.90
2023-04-22T01:00:31.198Z,0.90
2023-04-22T01:02:59.270Z,0.57
2023-04-22T01:05:31.874Z,0.60
2023-04-22T01:10:32.076Z,0.70
2023-04-22T01:13:00.846Z,0.90
2023-04-22T01:15:28.953Z,0.60
2023-04-22T01:17:59.056Z,0.68
2023-04-22T01:20:30.643Z,0.85
2023-04-22T01:22:59.634Z,1.10
2023-04-22T01:25:27.229Z,0.90
2023-04-22T01:27:58.111Z,0.60
2023-04-22T01:30:25.421Z,0.75
2023-04-22T01:32:53.337Z,0.80
2023-04-22T01:35:21.311Z,0.70
2023-04-22T01:37:48.712Z,0.90
2023-04-22T01:40:19.962Z,1.20
2023-04-22T01:42:47.193Z,0.80
2023-04-22T01:45:17.661Z,1.00
2023-04-22T01:47:44.976Z,1.00
2023-04-22T01:50:19.509Z,0.80
2023-04-22T01:52:47.236Z,0.93
2023-04-22T01:55:17.767Z,1.15
2023-04-22T01:57:50.394Z,1.33
2023-04-22T02:00:19.919Z,1.20
2023-04-22T02:02:48.794Z,0.80
2023-04-22T02:05:23.042Z,0.80
2023-04-22T02:07:53.826Z,0.90
2023-04-22T02:10:21.866Z,0.80
2023-04-22T02:12:52.591Z,1.02
2023-04-22T02:15:21.135Z,0.93
2023-04-22T02:17:51.501Z,1.27
2023-04-22T02:20:18.796Z,1.10
2023-04-22T02:22:46.051Z,0.90
2023-04-22T02:25:14.504Z,1.00
2023-04-22T02:27:42.779Z,1.02
2023-04-22T02:30:10.289Z,1.30
2023-04-22T02:32:39.005Z,1.13
2023-04-22T02:35:06.933Z,0.93
2023-04-22T02:37:34.092Z,1.10
2023-04-22T02:40:01.137Z,0.70
2023-04-22T02:42:30.327Z,1.20
2023-04-22T02:44:57.565Z,1.00
2023-04-22T02:47:25.400Z,1.00
2023-04-22T02:49:52.609Z,1.08
2023-04-22T02:52:24.676Z,1.23
2023-04-22T02:54:52.131Z,1.00
2023-04-22T02:57:19.256Z,1.42
2023-04-22T02:59:46.774Z,1.05
2023-04-22T03:02:17.169Z,1.45
2023-04-22T03:05:05.141Z,1.30
2023-04-22T03:07:32.320Z,1.67
2023-04-22T03:10:00.344Z,1.55
2023-04-22T03:12:31.817Z,1.42
2023-04-22T03:15:01.524Z,1.30
2023-04-22T03:17:31.412Z,1.35
2023-04-22T03:20:01.161Z,1.77
2023-04-22T03:22:28.993Z,1.35
2023-04-22T03:25:01.605Z,1.50
2023-04-22T03:27:29.717Z,1.40
2023-04-22T03:29:56.806Z,1.83
2023-04-22T03:32:24.027Z,1.38
2023-04-22T03:35:01.310Z,1.35
2023-04-22T03:37:29.131Z,1.27
2023-04-22T03:39:58.333Z,1.30
2023-04-22T03:42:27.921Z,1.77
2023-04-22T03:44:56.486Z,1.83
2023-04-22T03:47:27.188Z,1.55
2023-04-22T03:50:01.577Z,1.55
2023-04-22T03:52:32.856Z,1.88
2023-04-22T03:55:03.785Z,1.40
2023-04-22T03:57:31.800Z,1.13
2023-04-22T04:00:00.337Z,1.50
2023-04-22T04:02:30.029Z,1.55
2023-04-22T04:04:59.922Z,1.70
2023-04-22T04:07:27.623Z,1.50
2023-04-22T04:09:55.033Z,1.33
2023-04-22T04:12:22.785Z,1.40
2023-04-22T04:14:50.150Z,1.80
2023-04-22T04:19:53.951Z,1.92
2023-04-22T04:22:22.195Z,1.52
2023-04-22T04:24:56.848Z,1.40
2023-04-22T04:27:29.686Z,1.77
2023-04-22T04:29:57.094Z,1.98
2023-04-22T04:32:36.873Z,1.63
2023-04-22T04:35:09.562Z,2.10
2023-04-22T04:37:40.529Z,1.98
2023-04-22T04:40:12.389Z,1.77
2023-04-22T04:42:55.775Z,1.83
2023-04-22T04:45:30.266Z,1.95
2023-04-22T04:48:05.246Z,1.60
2023-04-22T04:50:36.342Z,1.65
2023-04-22T04:53:09.391Z,2.25
2023-04-22T04:55:41.064Z,1.80
2023-04-22T04:58:16.053Z,2.40
2023-04-22T05:00:43.645Z,1.85
2023-04-22T05:03:11.943Z,2.40
2023-04-22T05:05:40.069Z,2.00
2023-04-22T05:08:07.331Z,2.45
2023-04-22T05:10:36.733Z,2.65
2023-04-22T05:13:04.560Z,2.60
2023-04-22T05:15:32.918Z,2.60
2023-04-22T05:18:00.377Z,2.00
2023-04-22T05:20:27.657Z,2.15
2023-04-22T05:22:54.790Z,2.70
2023-04-22T05:25:28.282Z,2.38
2023-04-22T05:28:01.755Z,2.40
2023-04-22T05:30:34.963Z,3.00
2023-04-22T05:33:08.298Z,2.30
2023-04-22T05:35:38.483Z,2.83
2023-04-22T05:38:06.561Z,2.60
2023-04-22T05:40:37.755Z,2.45
2023-04-22T05:43:06.546Z,2.05
2023-04-22T05:45:34.678Z,2.55
2023-04-22T05:48:03.804Z,2.50
2023-04-22T05:50:36.133Z,2.13
2023-04-22T05:53:08.022Z,1.63
2023-04-22T05:55:37.405Z,2.78
2023-04-22T05:58:07.722Z,2.55
2023-04-22T06:03:35.705Z,1.80
2023-04-22T06:06:03.472Z,2.10
2023-04-22T06:08:31.681Z,1.80
2023-04-22T06:11:01.307Z,2.45
2023-04-22T06:13:31.627Z,2.60
2023-04-22T06:15:59.068Z,2.20
2023-04-22T06:18:29.640Z,1.80
2023-04-22T06:20:56.845Z,3.05
2023-04-22T06:23:29.262Z,2.17
2023-04-22T06:25:58.642Z,1.88
2023-04-22T06:28:25.938Z,2.85
2023-04-22T06:30:56.203Z,2.45
2023-04-22T06:33:25.862Z,2.35
2023-04-22T06:35:53.182Z,2.20
2023-04-22T06:38:22.974Z,2.42
2023-04-22T06:41:11.657Z,2.67
2023-04-22T06:43:43.419Z,2.30
2023-04-22T06:46:19.214Z,2.17
2023-04-22T06:48:58.708Z,2.17
2023-04-22T06:51:48.783Z,2.45
2023-04-22T06:54:16.294Z,2.90
2023-04-22T06:56:43.645Z,2.53
2023-04-22T06:59:14.333Z,2.45
2023-04-22T07:01:43.712Z,2.45
2023-04-22T07:04:11.101Z,2.28
2023-04-22T07:06:38.742Z,2.75
2023-04-22T07:09:08.016Z,3.17
2023-04-22T07:14:17.562Z,2.38
2023-04-22T07:16:47.656Z,2.85
2023-04-22T07:19:17.957Z,2.88
2023-04-22T07:21:48.244Z,2.47
2023-04-22T07:24:16.119Z,2.63
2023-04-22T07:26:44.573Z,2.47
2023-04-22T07:29:14.435Z,3.30
2023-04-22T07:31:42.887Z,3.17
2023-04-22T07:34:10.878Z,2.70
2023-04-22T07:36:38.108Z,3.30
2023-04-22T07:39:06.508Z,2.95
2023-04-22T07:41:35.230Z,2.95
2023-04-22T07:44:03.532Z,2.88
2023-04-22T07:46:31.096Z,3.40
2023-04-22T07:49:01.644Z,3.85
2023-04-22T07:51:29.074Z,3.35
2023-04-22T07:53:56.454Z,2.90
2023-04-22T07:56:26.654Z,3.63
2023-04-22T07:58:53.696Z,3.95
2023-04-22T08:01:20.909Z,3.17
2023-04-22T08:03:48.651Z,3.13
2023-04-22T08:06:16.072Z,3.55
2023-04-22T08:08:43.336Z,2.78
2023-04-22T08:11:10.696Z,2.70
2023-04-22T08:27:31.115Z,3.20
2023-04-22T08:30:14.394Z,3.03
2023-04-22T08:32:44.636Z,3.00
2023-04-22T08:35:12.171Z,2.65
2023-04-22T08:37:41.424Z,3.25
2023-04-22T08:40:35.020Z,3.10
2023-04-22T08:43:04.889Z,2.85
2023-04-22T08:45:35.553Z,3.40
2023-04-22T08:48:03.053Z,3.08
2023-04-22T08:50:34.584Z,2.97
2023-04-22T09:32:48.064Z,2.08
2023-04-22T09:35:57.798Z,2.47
2023-04-22T09:43:22.424Z,3.58
2023-04-22T09:49:50.845Z,2.63
2023-04-22T09:52:43.897Z,3.78
2023-04-22T09:55:36.020Z,3.78
2023-04-22T09:58:08.907Z,2.65
2023-04-22T10:03:43.156Z,1.98
2023-04-22T10:06:15.598Z,2.60
2023-04-22T10:08:54.038Z,2.38
2023-04-22T10:11:38.622Z,2.50
2023-04-22T10:14:08.974Z,2.30
2023-04-22T10:21:10.760Z,2.83
2023-04-22T10:23:47.351Z,2.10
2023-04-22T10:26:34.294Z,2.40
2023-04-22T10:30:04.873Z,2.20
2023-04-22T10:33:19.908Z,2.35
2023-04-22T10:36:08.089Z,2.00
2023-04-22T10:38:39.467Z,2.38
2023-04-22T10:41:16.257Z,1.65
2023-04-22T10:43:55.974Z,1.88
2023-04-22T10:46:33.104Z,2.72
2023-04-22T10:49:24.452Z,2.33
2023-04-22T10:52:29.622Z,3.13
2023-04-22T10:54:58.740Z,2.78
2023-04-22T10:57:43.898Z,3.15
2023-04-22T11:00:52.502Z,3.85
2023-04-22T11:03:50.354Z,2.50
2023-04-22T11:06:25.006Z,2.60
2023-04-22T11:09:40.607Z,2.75
2023-04-22T11:12:42.618Z,2.72
2023-04-22T11:15:11.126Z,3.00
2023-04-22T11:17:40.216Z,2.40
2023-04-22T11:20:10.659Z,2.28
2023-04-22T11:22:45.310Z,2.08
2023-04-22T11:25:12.566Z,2.45
2023-04-22T11:27:42.071Z,2.30
2023-04-22T11:30:16.787Z,3.20
2023-04-22T11:32:58.837Z,2.08
2023-04-22T11:35:32.370Z,2.15
2023-04-22T11:38:08.425Z,2.70
2023-04-22T11:41:26.795Z,2.90
2023-04-22T11:44:00.096Z,1.95
2023-04-22T11:46:31.246Z,2.60
2023-04-22T11:49:28.001Z,3.25
2023-04-22T11:51:56.658Z,2.22
2023-04-22T11:54:35.178Z,2.50
2023-04-22T11:57:14.652Z,2.58
2023-04-22T11:59:42.624Z,2.05
2023-04-22T12:02:10.485Z,2.40
2023-04-22T12:04:41.642Z,2.60
2023-04-22T12:07:08.714Z,2.07
2023-04-22T12:09:35.740Z,1.98
2023-04-22T12:12:05.625Z,2.72
2023-04-22T12:14:36.457Z,3.35
2023-04-22T12:17:09.479Z,2.50
2023-04-22T12:19:37.939Z,2.47
2023-04-22T12:22:05.409Z,3.00
2023-04-22T12:24:35.680Z,2.60
2023-04-22T12:27:03.597Z,2.88
2023-04-22T12:29:34.169Z,2.70
2023-04-22T12:32:01.340Z,2.60
2023-04-22T12:34:31.395Z,2.33
2023-04-22T12:36:59.227Z,2.67
2023-04-22T12:39:26.555Z,2.20
2023-04-22T12:41:53.828Z,3.00
2023-04-22T12:44:25.173Z,2.60
2023-04-22T12:46:52.590Z,2.70
2023-04-22T12:49:19.812Z,3.45
2023-04-22T12:51:46.757Z,3.47
2023-04-22T12:54:13.890Z,3.42
2023-04-22T12:56:41.201Z,3.85
2023-04-22T12:59:14.135Z,3.97
2023-04-22T13:01:41.449Z,3.88
2023-04-22T13:04:08.604Z,3.45
2023-04-22T13:06:36.721Z,4.15
2023-04-22T13:09:14.410Z,4.13
2023-04-22T13:11:41.489Z,4.05
2023-04-22T13:14:08.507Z,4.45
2023-04-22T13:16:35.671Z,4.32
2023-04-22T13:19:02.798Z,5.18
2023-04-22T13:21:29.948Z,5.28
2023-04-22T13:23:57.002Z,6.05
2023-04-22T13:26:25.499Z,5.90
2023-04-22T13:28:52.693Z,5.68
2023-04-22T13:31:19.774Z,5.43
2023-04-22T13:33:47.744Z,5.82
2023-04-22T13:36:22.364Z,6.25
2023-04-22T13:38:52.184Z,5.90
2023-04-22T13:41:19.379Z,6.53
2023-04-22T13:43:46.495Z,6.55
2023-04-22T13:46:13.744Z,7.45
2023-04-22T13:48:40.977Z,7.90
2023-04-22T13:51:08.203Z,8.60
2023-04-22T13:53:37.787Z,7.47
2023-04-22T13:56:05.115Z,7.75
2023-04-22T13:58:32.642Z,7.78
2023-04-22T14:00:59.813Z,9.25
2023-04-22T14:03:29.280Z,10.02
2023-04-22T14:05:56.616Z,8.18
2023-04-22T14:08:24.262Z,7.00
2023-04-22T14:10:51.421Z,6.18
2023-04-22T14:13:19.187Z,6.97
2023-04-22T14:15:46.300Z,9.35
2023-04-22T14:18:13.393Z,9.10
2023-04-22T14:20:40.656Z,7.57
2023-04-22T14:23:07.615Z,8.48
2023-04-22T14:25:35.942Z,8.80
2023-04-22T14:28:03.563Z,6.28
2023-04-22T14:30:30.870Z,7.80
2023-04-22T14:32:58.670Z,7.75
2023-04-22T14:35:25.991Z,6.10
2023-04-22T14:37:53.052Z,5.72
2023-04-22T14:40:20.381Z,6.70
2023-04-22T14:42:47.721Z,5.90
2023-04-22T14:45:14.896Z,6.15
2023-04-22T14:47:41.964Z,6.53
2023-04-22T14:50:10.330Z,7.43
2023-04-22T14:52:37.952Z,7.20
2023-04-22T14:55:15.504Z,6.85
2023-04-22T14:57:53.269Z,8.40
2023-04-22T15:00:20.655Z,9.55
2023-04-22T15:02:48.225Z,8.27
2023-04-22T15:05:15.496Z,8.82
2023-04-22T15:07:42.779Z,8.18
2023-04-22T15:10:23.258Z,7.70
2023-04-22T15:12:50.832Z,8.20
2023-04-22T15:15:18.505Z,7.53
2023-04-22T15:17:47.266Z,7.30
2023-04-22T15:20:14.910Z,7.75
2023-04-22T15:22:42.291Z,7.57
2023-04-22T15:25:10.879Z,7.00
2023-04-22T15:27:38.815Z,6.38
2023-04-22T15:30:07.359Z,7.00
2023-04-22T15:32:35.059Z,6.65
2023-04-22T15:35:02.733Z,6.45
2023-04-22T15:37:30.046Z,6.22
2023-04-22T15:39:57.068Z,6.10
2023-04-22T15:42:24.396Z,6.38
2023-04-22T15:44:54.263Z,6.20
2023-04-22T15:47:21.515Z,6.72
2023-04-22T15:49:51.108Z,5.85
2023-04-22T15:52:19.584Z,6.40
2023-04-22T15:54:46.942Z,7.13
2023-04-22T15:57:14.051Z,5.75
2023-04-22T15:59:41.351Z,5.90
2023-04-22T16:02:09.885Z,4.88
2023-04-22T16:04:37.389Z,5.20
2023-04-22T16:07:06.060Z,4.90
2023-04-22T16:09:33.376Z,4.75
2023-04-22T16:12:01.766Z,5.35
2023-04-22T16:14:28.849Z,6.53
2023-04-22T16:16:56.097Z,6.10
2023-04-22T16:19:23.517Z,4.95
2023-04-22T16:21:50.851Z,4.75
2023-04-22T16:24:18.210Z,4.72
2023-04-22T16:26:45.302Z,4.50
2023-04-22T16:29:12.306Z,5.13
2023-04-22T16:31:39.368Z,5.30
2023-04-22T16:34:06.510Z,5.57
2023-04-22T16:36:34.009Z,5.43
2023-04-22T16:39:01.723Z,6.47
2023-04-22T16:41:29.186Z,7.75
2023-04-22T16:43:56.372Z,7.88
2023-04-22T16:46:23.511Z,7.00
2023-04-22T16:48:50.584Z,9.05
2023-04-22T16:51:17.664Z,9.95
2023-04-22T16:53:45.263Z,8.65
2023-04-22T16:56:12.290Z,8.23
2023-04-22T16:58:39.404Z,8.50
2023-04-22T17:01:08.763Z,6.40
2023-04-22T17:03:36.286Z,6.57
2023-04-22T17:06:03.851Z,8.70
2023-04-22T17:08:30.975Z,9.48
2023-04-22T17:10:58.869Z,8.90
2023-04-22T17:13:26.333Z,7.78
2023-04-22T17:15:53.520Z,8.13
2023-04-22T17:18:20.674Z,8.50
2023-04-22T17:20:49.244Z,6.65
2023-04-22T17:23:17.100Z,6.82
2023-04-22T17:25:48.150Z,6.70
2023-04-22T17:28:15.480Z,8.07
2023-04-22T17:30:42.762Z,7.25
2023-04-22T17:33:09.957Z,6.47
2023-04-22T17:35:36.971Z,7.32
2023-04-22T17:38:04.178Z,8.98
2023-04-22T17:40:31.583Z,8.65
2023-04-22T17:42:58.923Z,8.63
2023-04-22T17:45:26.177Z,9.13
2023-04-22T17:47:53.471Z,7.95
2023-04-22T17:50:20.942Z,8.95
2023-04-22T17:52:48.118Z,9.07
2023-04-22T17:55:15.684Z,8.52
2023-04-22T17:57:42.931Z,7.15
2023-04-22T18:00:10.803Z,7.15
2023-04-22T18:02:39.956Z,7.95
2023-04-22T18:05:08.106Z,7.25
2023-04-22T18:07:35.741Z,7.45
2023-04-22T18:10:06.814Z,8.05
2023-04-22T18:12:36.969Z,7.60
2023-04-22T18:15:05.069Z,7.25
2023-04-22T18:17:32.409Z,12.13
2023-04-22T18:20:13.980Z,9.23
2023-04-22T18:22:44.549Z,11.50
2023-04-22T18:25:15.114Z,9.48
2023-04-22T18:27:44.721Z,11.68
2023-04-22T18:30:12.061Z,10.80
2023-04-22T18:32:39.346Z,9.82
2023-04-22T18:35:07.744Z,8.00
2023-04-22T18:37:39.669Z,7.88
2023-04-22T18:40:08.233Z,8.30
2023-04-22T18:42:35.616Z,7.50
2023-04-22T18:45:04.773Z,6.95
2023-04-22T18:47:32.432Z,6.93
2023-04-22T18:50:03.043Z,8.32
2023-04-22T18:52:30.369Z,9.85
2023-04-22T18:54:57.617Z,11.57
2023-04-22T18:57:24.812Z,14.63
2023-04-22T18:59:52.123Z,15.65
2023-04-22T19:02:19.310Z,13.07
2023-04-22T19:04:47.346Z,18.50
2023-04-22T19:07:14.898Z,18.05
2023-04-22T19:09:42.031Z,15.35
2023-04-22T19:12:14.786Z,14.10
2023-04-22T19:14:42.500Z,12.90
2023-04-22T19:17:10.131Z,12.93
2023-04-22T19:19:37.190Z,14.73
2023-04-22T19:22:04.334Z,17.10
2023-04-22T19:24:35.417Z,18.73
2023-04-22T19:27:03.053Z,19.30
2023-04-22T19:29:30.177Z,19.05
2023-04-22T19:31:57.519Z,16.77
2023-04-22T19:34:24.684Z,16.48
2023-04-22T19:36:51.661Z,17.60
2023-04-22T19:39:18.625Z,16.95
2023-04-22T19:41:45.736Z,14.15
2023-04-22T19:44:15.414Z,13.02
2023-04-22T19:46:46.319Z,13.38
2023-04-22T19:49:14.010Z,16.42
2023-04-22T19:51:42.076Z,14.45
2023-04-22T19:54:13.283Z,13.82
2023-04-22T19:56:41.537Z,15.02
2023-04-22T19:59:09.113Z,16.50
2023-04-22T20:01:36.749Z,17.83
2023-04-22T20:04:04.799Z,18.13
2023-04-22T20:06:34.171Z,19.85
2023-04-22T20:09:05.460Z,21.10
2023-04-22T20:11:32.951Z,21.67
2023-04-22T20:14:01.125Z,21.73
2023-04-22T20:16:28.801Z,19.95
2023-04-22T20:18:58.218Z,21.90
2023-04-22T20:21:25.921Z,20.95
2023-04-22T20:23:55.871Z,20.00
2023-04-22T20:26:23.308Z,19.13
2023-04-22T20:28:54.163Z,18.67
2023-04-22T20:31:24.529Z,16.67
2023-04-22T20:33:51.847Z,16.85
2023-04-22T20:36:20.240Z,17.10
2023-04-22T20:38:54.962Z,19.30
2023-04-22T20:41:24.849Z,22.17
2023-04-22T20:43:52.435Z,18.33
2023-04-22T20:46:22.649Z,18.35
2023-04-22T20:48:50.063Z,17.13
2023-04-22T20:51:56.555Z,15.45
2023-04-22T20:54:28.962Z,17.83
2023-04-22T20:57:08.623Z,17.48
2023-04-22T20:59:36.805Z,19.48
2023-04-22T21:02:06.541Z,18.95
2023-04-22T21:04:33.869Z,18.63
2023-04-22T21:07:04.086Z,18.10
2023-04-22T21:09:32.775Z,15.65
2023-04-22T21:12:00.037Z,15.15
2023-04-22T21:14:27.513Z,16.05
2023-04-22T21:17:25.707Z,15.43
2023-04-22T21:19:56.215Z,13.88
2023-04-22T21:22:26.544Z,13.23
2023-04-22T21:24:53.898Z,13.52
2023-04-22T21:27:22.366Z,12.10
2023-04-22T21:29:50.157Z,13.23
2023-04-22T21:32:17.779Z,10.85
2023-04-22T21:34:45.286Z,10.93
2023-04-22T21:37:12.882Z,11.32
2023-04-22T21:39:40.936Z,10.57
2023-04-22T21:42:08.869Z,11.20
2023-04-22T21:44:38.051Z,10.38
2023-04-22T21:47:13.052Z,11.38
2023-04-22T21:49:40.229Z,10.25
2023-04-22T21:52:07.531Z,9.25
2023-04-22T21:54:34.707Z,9.75
2023-04-22T21:57:02.329Z,9.55
2023-04-22T21:59:29.311Z,9.63
2023-04-22T22:01:56.542Z,9.88
2023-04-22T22:04:23.640Z,11.10
2023-04-22T22:06:50.941Z,10.55
2023-04-22T22:09:19.162Z,10.73
2023-04-22T22:11:46.123Z,10.95
2023-04-22T22:14:13.244Z,10.55
2023-04-22T22:16:40.412Z,10.25
2023-04-22T22:19:11.019Z,11.93
2023-04-22T22:21:38.680Z,10.80
2023-04-22T22:24:06.430Z,10.93
2023-04-22T22:26:41.347Z,10.23
2023-04-22T22:29:15.656Z,10.20
2023-04-22T22:31:44.459Z,9.93
2023-04-22T22:34:11.947Z,9.88
2023-04-22T22:36:39.170Z,10.18
2023-04-22T22:39:06.594Z,8.68
2023-04-22T22:41:33.685Z,10.68
2023-04-22T22:44:00.754Z,10.60
2023-04-22T22:46:27.917Z,9.55
2023-04-22T22:48:55.911Z,10.00
2023-04-22T22:51:22.896Z,9.55
2023-04-22T22:53:49.991Z,9.20
2023-04-22T22:56:18.163Z,9.65
2023-04-22T22:58:46.235Z,9.30
2023-04-22T23:01:13.315Z,9.23
2023-04-22T23:03:40.939Z,8.27
2023-04-22T23:06:08.112Z,9.50
2023-04-22T23:08:35.300Z,9.60
2023-04-22T23:11:08.290Z,8.75
2023-04-22T23:13:39.259Z,8.80
2023-04-22T23:16:06.596Z,9.18
2023-04-22T23:18:36.136Z,9.57
2023-04-22T23:21:06.720Z,9.13
2023-04-22T23:23:39.451Z,10.15
2023-04-22T23:26:07.115Z,9.20
2023-04-22T23:28:34.833Z,9.77
2023-04-22T23:31:04.218Z,8.15
2023-04-22T23:33:34.689Z,9.73
2023-04-22T23:36:05.396Z,8.85
2023-04-22T23:38:32.398Z,9.43
2023-04-22T23:40:59.548Z,8.88
2023-04-22T23:43:26.551Z,9.35
2023-04-22T23:45:53.550Z,9.32
2023-04-22T23:48:20.700Z,9.70
2023-04-22T23:50:47.657Z,8.77
2023-04-22T23:53:14.727Z,10.20
2023-04-22T23:55:42.029Z,9.25
2023-04-22T23:58:09.365Z,9.60
